Impacts METAR Board
IDs:

KTIX - Titusville/Space Coa, FL, US

Updated at: 2200 UTC 30 Jun 2022
Potential Impact None Slight Moderate High
Time 30/10Z 30/11Z 30/12Z 30/13Z 30/14Z 30/15Z 30/16Z 30/17Z 30/18Z 30/19Z 30/20Z 30/21Z 30/22Z
Temp 77 79 82 86 88 90 81 81 84 88 82
Dewpt 75 75 77 75 73 73 75 75 77 77 77
Altim 30.13 30.14 30.14 30.15 30.15 30.14 30.13 30.11 30.09 30.09 30.09
VIS 7 7 7 7 7 7 6 6 7 7 75
CIG -- -- -- -- -- 30 30 50 100 100 100
CoverSCTSCTSCTSCTSCTBKNBKNBKNBKNBKNBKN
FltCatVFRVFRVFRVFRVFRMVFRMVFRVFRVFRVFRVFR
WX------------BRBRBRBRBR
WDir000000180180160140140
WSpd 0 0 0 0 0 6 5 5 4 6 6
WGst -- -- -- -- -- -- -- -- -- -- --
Raw hourly METARs

KTIX 301047Z 00000KT 7SM SCT120 25/24 A3013
KTIX 301147Z 00000KT 7SM SCT120 26/24 A3014
KTIX 301247Z 00000KT 7SM SCT030 28/25 A3014
KTIX 301353Z 00000KT 7SM SCT030 30/24 A3015
KTIX 301453Z 00000KT 7SM SCT030 31/23 A3015
KTIX 301553Z VRB06KT 7SM BKN030 32/23 A3014

KTIX 301753Z 18005KT 6SM BKN030 27/24 A3013 BR
KTIX 301853Z 18005KT 6SM BKN050 27/24 A3011 BR
KTIX 301948Z 16004KT 7SM SCT035 BKN100 29/25 A3009 BR
KTIX 302047Z 14006KT 7SM SCT035 BKN100 31/25 A3009 BR
KTIX 302155Z 14006KT 75SM BR SCT018 BKN100 28/25 A3009 RMK TS N MOV W



Page loaded:  22:04 UTC  |   03:04 PM Pacific  |   04:04 PM Mountain  |   05:04 PM Central  |   06:04 PM Eastern

 

ADVISORIES

FORECASTS

FORECASTS

OBSERVATIONS

USER TOOLS

ABOUT US